createdAt,value
2022-08-04T00:02:21.754Z,9.60
2022-08-04T00:04:59.549Z,10.63
2022-08-04T00:07:44.811Z,10.00
2022-08-04T00:10:16.383Z,9.13
2022-08-04T00:12:48.591Z,9.10
2022-08-04T00:15:17.337Z,9.63
2022-08-04T00:18:00.256Z,9.50
2022-08-04T00:20:32.223Z,9.53
2022-08-04T00:23:00.806Z,9.10
2022-08-04T00:25:28.753Z,9.43
2022-08-04T00:27:55.859Z,9.60
2022-08-04T00:30:22.860Z,9.47
2022-08-04T00:32:51.256Z,9.43
2022-08-04T00:35:18.655Z,9.17
2022-08-04T00:37:46.040Z,9.37
2022-08-04T00:40:34.391Z,9.13
2022-08-04T00:43:35.209Z,9.43
2022-08-04T00:46:16.855Z,9.10
2022-08-04T00:49:31.232Z,9.93
2022-08-04T00:52:32.425Z,9.23
2022-08-04T00:55:19.027Z,8.63
2022-08-04T00:58:03.555Z,8.77
2022-08-04T01:00:47.492Z,10.47
2022-08-04T01:03:23.136Z,9.27
2022-08-04T01:06:04.128Z,9.20
2022-08-04T01:08:36.836Z,9.20
2022-08-04T01:11:56.564Z,9.23
2022-08-04T01:14:44.495Z,8.63
2022-08-04T01:17:25.629Z,9.13
2022-08-04T01:20:02.335Z,8.63
2022-08-04T01:22:32.223Z,8.50
2022-08-04T01:25:36.950Z,9.47
2022-08-04T01:28:08.955Z,8.93
2022-08-04T01:30:45.753Z,9.00
2022-08-04T01:33:17.924Z,8.87
2022-08-04T01:35:50.945Z,8.50
2022-08-04T01:38:33.564Z,9.10
2022-08-04T01:41:06.869Z,9.47
2022-08-04T01:43:35.919Z,9.20
2022-08-04T01:46:05.091Z,9.03
2022-08-04T01:48:32.916Z,9.67
2022-08-04T01:51:06.256Z,8.80
2022-08-04T01:53:38.274Z,8.73
2022-08-04T01:56:07.200Z,8.70
2022-08-04T01:58:36.634Z,9.07
2022-08-04T02:01:12.105Z,8.97
2022-08-04T02:04:20.113Z,8.23
2022-08-04T02:06:31.942Z,7.90
2022-08-04T02:09:19.608Z,9.00
2022-08-04T02:12:02.540Z,9.27
2022-08-04T02:14:40.797Z,9.00
2022-08-04T02:17:15.226Z,8.50
2022-08-04T02:20:08.139Z,9.20
2022-08-04T02:22:47.659Z,8.73
2022-08-04T02:25:22.594Z,8.17
2022-08-04T02:28:29.424Z,8.67
2022-08-04T02:31:08.150Z,8.10
2022-08-04T02:33:42.173Z,8.37
2022-08-04T02:36:30.767Z,8.07
2022-08-04T02:39:03.728Z,7.67
2022-08-04T02:41:31.987Z,7.53
2022-08-04T02:44:02.361Z,7.63
2022-08-04T02:46:30.829Z,7.67
2022-08-04T02:48:58.218Z,7.53
2022-08-04T02:51:29.001Z,7.53
2022-08-04T02:53:58.950Z,8.00
2022-08-04T02:56:30.197Z,7.87
2022-08-04T02:59:00.582Z,7.03
2022-08-04T03:01:27.694Z,7.63
2022-08-04T03:04:35.285Z,7.77
2022-08-04T03:07:41.807Z,7.67
2022-08-04T03:11:01.876Z,7.77
2022-08-04T03:13:55.336Z,7.53
2022-08-04T03:17:04.437Z,7.87
2022-08-04T03:19:42.789Z,7.60
2022-08-04T03:23:18.106Z,8.03
2022-08-04T03:26:08.596Z,7.50
2022-08-04T03:29:05.838Z,7.60
2022-08-04T03:31:54.899Z,9.47
2022-08-04T03:34:33.255Z,7.23
2022-08-04T03:37:11.867Z,6.90
2022-08-04T03:40:04.860Z,7.20
2022-08-04T03:42:43.882Z,7.20
2022-08-04T03:45:23.679Z,6.97
2022-08-04T03:48:20.209Z,6.60
2022-08-04T03:51:35.914Z,6.77
2022-08-04T03:54:44.851Z,7.03
2022-08-04T03:57:49.353Z,7.50
2022-08-04T04:00:19.765Z,7.53
2022-08-04T04:03:01.915Z,7.83
2022-08-04T04:06:12.367Z,8.50
2022-08-04T04:09:21.475Z,8.13
2022-08-04T04:12:09.176Z,7.43
2022-08-04T04:14:55.160Z,8.30
2022-08-04T04:17:34.090Z,9.13
2022-08-04T04:20:26.444Z,8.50
2022-08-04T04:23:31.806Z,9.57
2022-08-04T04:26:13.828Z,8.70
2022-08-04T04:29:03.527Z,10.00
2022-08-04T04:32:01.685Z,10.40
2022-08-04T04:34:47.854Z,10.80
2022-08-04T04:37:48.983Z,10.63
2022-08-04T04:40:34.476Z,10.47
2022-08-04T04:43:19.197Z,10.37
2022-08-04T04:46:09.208Z,10.37
2022-08-04T04:49:07.908Z,10.37
2022-08-04T04:52:08.455Z,10.07
2022-08-04T04:54:51.407Z,10.20
2022-08-04T04:57:53.548Z,10.27
2022-08-04T05:00:13.696Z,10.00
2022-08-04T05:03:17.901Z,9.27
2022-08-04T05:06:09.018Z,9.20
2022-08-04T05:09:04.750Z,9.47
2022-08-04T05:12:02.479Z,9.63
2022-08-04T05:14:41.730Z,8.90
2022-08-04T05:17:18.985Z,9.90
2022-08-04T05:20:04.052Z,8.83
2022-08-04T05:22:41.177Z,8.47
2022-08-04T05:25:34.841Z,8.87
2022-08-04T05:28:18.419Z,8.83
2022-08-04T05:30:53.762Z,7.93
2022-08-04T05:33:29.071Z,8.27
2022-08-04T05:36:21.759Z,9.20
2022-08-04T05:38:53.907Z,8.50
2022-08-04T05:41:22.386Z,8.77
2022-08-04T05:43:50.185Z,8.37
2022-08-04T05:46:18.332Z,8.43
2022-08-04T05:48:46.763Z,8.40
2022-08-04T05:51:15.467Z,8.23
2022-08-04T05:53:44.662Z,7.47
2022-08-04T05:56:14.566Z,7.87
2022-08-04T05:58:42.541Z,8.47
2022-08-04T06:01:10.990Z,7.20
2022-08-04T06:03:40.084Z,7.10
2022-08-04T06:06:09.417Z,8.10
2022-08-04T06:08:36.554Z,6.70
2022-08-04T06:11:08.077Z,6.63
2022-08-04T06:13:51.744Z,7.60
2022-08-04T06:16:28.630Z,6.43
2022-08-04T06:20:01.351Z,6.77
2022-08-04T06:22:00.129Z,6.83
2022-08-04T06:24:30.154Z,7.43
2022-08-04T06:26:57.808Z,6.10
2022-08-04T06:29:40.373Z,5.97
2022-08-04T06:32:38.748Z,6.00
2022-08-04T06:35:09.609Z,5.63
2022-08-04T06:37:43.142Z,5.70
2022-08-04T06:40:31.768Z,5.80
2022-08-04T06:43:02.331Z,5.10
2022-08-04T06:45:30.302Z,5.03
2022-08-04T06:47:58.318Z,4.80
2022-08-04T06:51:25.896Z,4.80
2022-08-04T06:53:13.672Z,4.50
2022-08-04T06:55:43.336Z,5.00
2022-08-04T06:58:11.167Z,4.37
2022-08-04T07:00:43.535Z,4.50
2022-08-04T07:03:18.817Z,4.28
2022-08-04T07:05:48.442Z,4.50
2022-08-04T07:08:15.918Z,4.27
2022-08-04T07:10:44.658Z,4.10
2022-08-04T07:13:12.492Z,4.17
2022-08-04T07:15:43.818Z,4.20
2022-08-04T07:18:12.538Z,4.22
2022-08-04T07:20:46.431Z,4.40
2022-08-04T07:23:19.918Z,4.10
2022-08-04T07:25:59.818Z,4.68
2022-08-04T07:29:01.988Z,4.40
2022-08-04T07:31:34.228Z,4.10
2022-08-04T07:34:16.434Z,4.13
2022-08-04T07:36:55.703Z,4.47
2022-08-04T07:39:28.123Z,4.55
2022-08-04T07:41:58.347Z,4.97
2022-08-04T07:44:25.861Z,5.00
2022-08-04T07:46:53.148Z,4.43
2022-08-04T07:49:54.207Z,4.28
2022-08-04T07:52:10.340Z,4.30
2022-08-04T07:54:41.830Z,4.22
2022-08-04T07:57:08.815Z,3.92
2022-08-04T08:40:52.025Z,2.95
2022-08-04T09:04:32.305Z,2.55
2022-08-04T09:39:02.220Z,2.90
2022-08-04T09:41:49.376Z,3.65
2022-08-04T09:44:50.936Z,3.08
2022-08-04T09:47:39.608Z,3.03
2022-08-04T09:50:29.483Z,3.35
2022-08-04T09:53:06.567Z,2.80
2022-08-04T09:55:54.809Z,3.05
2022-08-04T09:58:50.294Z,3.10
2022-08-04T10:01:23.636Z,3.85
2022-08-04T10:04:01.338Z,3.78
2022-08-04T10:07:22.854Z,3.70
2022-08-04T10:10:26.698Z,3.10
2022-08-04T10:13:19.713Z,3.00
2022-08-04T10:16:15.125Z,3.55
2022-08-04T10:19:08.243Z,3.88
2022-08-04T10:21:59.572Z,3.20
2022-08-04T10:24:35.637Z,3.40
2022-08-04T10:27:25.770Z,4.00
2022-08-04T10:29:58.414Z,3.25
2022-08-04T10:32:42.955Z,3.53
2022-08-04T10:35:23.754Z,3.42
2022-08-04T10:38:27.059Z,3.70
2022-08-04T10:41:03.855Z,3.60
2022-08-04T10:43:46.381Z,3.75
2022-08-04T10:46:18.055Z,3.78
2022-08-04T10:48:45.715Z,4.05
2022-08-04T10:51:58.085Z,3.83
2022-08-04T10:55:03.942Z,3.70
2022-08-04T10:57:35.603Z,3.60
2022-08-04T11:00:14.786Z,3.80
2022-08-04T11:02:57.805Z,3.42
2022-08-04T11:05:29.152Z,3.70
2022-08-04T11:08:16.402Z,3.38
2022-08-04T11:10:59.241Z,3.30
2022-08-04T11:13:53.405Z,3.53
2022-08-04T11:16:26.420Z,3.08
2022-08-04T11:18:59.186Z,3.20
2022-08-04T11:21:32.126Z,3.30
2022-08-04T11:24:17.223Z,3.30
2022-08-04T11:27:17.920Z,3.47
2022-08-04T11:29:59.653Z,3.30
2022-08-04T11:32:55.895Z,3.40
2022-08-04T11:35:52.738Z,3.90
2022-08-04T11:38:32.145Z,4.07
2022-08-04T11:41:08.192Z,3.33
2022-08-04T11:44:01.588Z,3.85
2022-08-04T11:46:42.980Z,3.38
2022-08-04T11:49:56.980Z,3.13
2022-08-04T11:52:27.680Z,3.13
2022-08-04T11:54:55.925Z,3.00
2022-08-04T11:57:35.338Z,3.60
2022-08-04T12:00:10.742Z,3.35
2022-08-04T12:03:01.972Z,2.95
2022-08-04T12:05:36.737Z,3.10
2022-08-04T12:08:22.492Z,3.40
2022-08-04T12:11:28.429Z,3.20
2022-08-04T12:14:34.122Z,3.42
2022-08-04T12:17:05.971Z,3.10
2022-08-04T12:20:03.789Z,3.72
2022-08-04T12:22:41.660Z,3.40
2022-08-04T12:25:18.241Z,3.60
2022-08-04T12:27:51.250Z,3.10
2022-08-04T12:30:58.600Z,3.08
2022-08-04T12:33:23.990Z,3.13
2022-08-04T12:36:21.417Z,3.30
2022-08-04T12:39:04.982Z,3.33
2022-08-04T12:41:39.802Z,2.60
2022-08-04T12:44:36.087Z,2.70
2022-08-04T12:47:28.444Z,3.08
2022-08-04T12:49:58.993Z,2.90
2022-08-04T12:55:18.263Z,2.78
2022-08-04T12:57:56.017Z,2.88
2022-08-04T13:00:31.255Z,2.90
2022-08-04T13:05:27.280Z,2.75
2022-08-04T13:08:05.269Z,3.08
2022-08-04T13:10:41.975Z,2.60
2022-08-04T13:13:16.281Z,2.80
2022-08-04T13:16:00.531Z,2.90
2022-08-04T13:18:32.399Z,3.03
2022-08-04T13:22:05.516Z,2.78
2022-08-04T13:27:48.756Z,2.75
2022-08-04T13:30:35.899Z,2.70
2022-08-04T13:33:42.531Z,2.83
2022-08-04T13:36:31.228Z,2.63
2022-08-04T13:39:03.247Z,2.90
2022-08-04T13:41:31.541Z,3.22
2022-08-04T13:44:17.445Z,2.85
2022-08-04T13:47:09.231Z,2.80
2022-08-04T13:50:00.978Z,3.00
2022-08-04T13:52:26.864Z,2.60
2022-08-04T13:54:53.856Z,2.60
2022-08-04T13:57:30.293Z,2.78
2022-08-04T14:00:09.285Z,2.45
2022-08-04T14:02:58.996Z,2.42
2022-08-04T14:08:35.220Z,2.78
2022-08-04T14:11:04.852Z,2.60
2022-08-04T14:13:41.387Z,2.70
2022-08-04T14:16:21.575Z,3.20
2022-08-04T14:18:57.125Z,2.40
2022-08-04T14:21:24.868Z,2.15
2022-08-04T14:23:54.308Z,2.70
2022-08-04T14:26:33.339Z,2.33
2022-08-04T14:29:26.709Z,2.20
2022-08-04T14:32:12.569Z,2.50
2022-08-04T14:34:52.651Z,2.70
2022-08-04T14:37:24.728Z,2.97
2022-08-04T14:40:08.622Z,2.13
2022-08-04T14:42:43.297Z,2.40
2022-08-04T14:45:10.695Z,3.30
2022-08-04T14:47:52.386Z,2.70
2022-08-04T14:50:21.120Z,2.20
2022-08-04T14:52:48.009Z,3.15
2022-08-04T14:55:23.783Z,2.90
2022-08-04T14:58:34.169Z,2.50
2022-08-04T15:00:38.831Z,2.60
2022-08-04T15:03:10.427Z,2.30
2022-08-04T15:05:59.825Z,2.40
2022-08-04T15:08:31.640Z,2.90
2022-08-04T15:11:02.441Z,2.53
2022-08-04T15:13:32.718Z,2.40
2022-08-04T15:16:06.601Z,2.50
2022-08-04T15:18:38.773Z,2.72
2022-08-04T15:21:07.166Z,2.53
2022-08-04T15:23:39.757Z,2.58
2022-08-04T15:26:12.391Z,2.70
2022-08-04T15:28:42.450Z,2.53
2022-08-04T15:32:04.025Z,2.78
2022-08-04T15:34:05.368Z,2.83
2022-08-04T15:36:42.711Z,2.20
2022-08-04T15:39:38.537Z,2.80
2022-08-04T15:42:32.417Z,2.38
2022-08-04T15:46:04.242Z,2.58
2022-08-04T15:48:32.056Z,2.55
2022-08-04T15:50:58.882Z,2.35
2022-08-04T15:54:01.803Z,2.80
2022-08-04T15:56:29.731Z,2.63
2022-08-04T15:58:57.602Z,2.47
2022-08-04T16:01:25.219Z,2.20
2022-08-04T16:04:00.470Z,2.45
2022-08-04T16:06:29.453Z,2.35
2022-08-04T16:09:05.183Z,2.40
2022-08-04T16:11:40.163Z,2.60
2022-08-04T16:14:10.867Z,2.42
2022-08-04T16:16:38.551Z,2.75
2022-08-04T16:19:14.538Z,2.60
2022-08-04T16:21:49.561Z,2.92
2022-08-04T16:24:29.724Z,2.80
2022-08-04T16:27:04.480Z,2.58
2022-08-04T16:29:38.105Z,2.83
2022-08-04T16:32:05.326Z,3.00
2022-08-04T16:35:00.098Z,2.92
2022-08-04T16:37:34.534Z,2.80
2022-08-04T16:40:34.462Z,3.22
2022-08-04T16:43:10.456Z,3.17
2022-08-04T16:45:45.925Z,2.85
2022-08-04T16:48:14.275Z,2.90
2022-08-04T16:51:05.268Z,2.90
2022-08-04T16:54:04.215Z,3.38
2022-08-04T16:56:34.380Z,3.28
2022-08-04T16:59:13.056Z,3.03
2022-08-04T17:01:50.620Z,2.90
2022-08-04T17:04:18.082Z,3.20
2022-08-04T17:06:49.353Z,3.15
2022-08-04T17:09:18.285Z,2.85
2022-08-04T17:11:47.393Z,3.20
2022-08-04T17:14:26.470Z,3.03
2022-08-04T17:16:58.995Z,3.15
2022-08-04T17:19:26.891Z,3.20
2022-08-04T17:22:05.560Z,3.20
2022-08-04T17:24:38.829Z,3.28
2022-08-04T17:28:10.965Z,3.30
2022-08-04T17:29:53.752Z,3.20
2022-08-04T17:32:22.230Z,3.53
2022-08-04T17:34:59.950Z,2.90
2022-08-04T17:37:36.705Z,3.17
2022-08-04T17:44:03.723Z,3.55
2022-08-04T17:46:28.238Z,3.55
2022-08-04T17:52:05.971Z,3.42
2022-08-04T17:54:39.895Z,3.17
2022-08-04T17:57:33.405Z,3.40
2022-08-04T18:00:00.503Z,3.65
2022-08-04T18:02:32.380Z,3.47
2022-08-04T18:05:07.752Z,3.50
2022-08-04T18:08:38.246Z,3.50
2022-08-04T18:10:52.403Z,3.40
2022-08-04T18:13:24.921Z,3.47
2022-08-04T18:16:04.153Z,3.53
2022-08-04T18:18:31.941Z,3.30
2022-08-04T18:21:03.171Z,3.60
2022-08-04T18:23:32.900Z,3.17
2022-08-04T18:26:02.164Z,3.20
2022-08-04T18:28:33.813Z,2.88
2022-08-04T18:31:01.886Z,2.90
2022-08-04T18:33:40.453Z,2.75
2022-08-04T18:36:34.557Z,3.42
2022-08-04T18:39:13.222Z,3.42
2022-08-04T18:44:52.441Z,3.25
2022-08-04T18:47:24.038Z,3.03
2022-08-04T18:50:59.987Z,3.45
2022-08-04T18:52:45.725Z,2.90
2022-08-04T18:55:55.995Z,3.65
2022-08-04T18:58:11.913Z,3.55
2022-08-04T19:00:45.839Z,3.13
2022-08-04T19:03:13.327Z,3.70
2022-08-04T19:05:43.806Z,3.25
2022-08-04T19:08:34.399Z,3.38
2022-08-04T19:11:35.232Z,3.53
2022-08-04T19:13:54.642Z,4.22
2022-08-04T19:16:26.853Z,4.45
2022-08-04T19:18:54.083Z,4.28
2022-08-04T19:24:32.214Z,4.20
2022-08-04T19:26:56.760Z,5.00
2022-08-04T19:29:23.779Z,4.63
2022-08-04T19:32:04.498Z,4.95
2022-08-04T19:34:46.291Z,4.47
2022-08-04T19:38:01.709Z,4.75
2022-08-04T19:40:08.178Z,4.53
2022-08-04T19:42:36.763Z,4.70
2022-08-04T19:45:05.171Z,4.50
2022-08-04T19:48:17.555Z,6.05
2022-08-04T19:50:20.140Z,4.50
2022-08-04T19:52:51.999Z,4.60
2022-08-04T19:55:37.356Z,4.55
2022-08-04T19:58:07.337Z,4.20
2022-08-04T20:00:37.195Z,4.47
2022-08-04T20:03:10.010Z,5.40
2022-08-04T20:05:53.461Z,4.60
2022-08-04T20:08:23.046Z,4.47
2022-08-04T20:10:51.964Z,4.97
2022-08-04T20:13:20.116Z,4.95
2022-08-04T20:15:57.405Z,4.40
2022-08-04T20:18:36.859Z,4.65
2022-08-04T20:24:39.384Z,4.88
2022-08-04T20:26:48.725Z,4.50
2022-08-04T20:29:36.943Z,4.60
2022-08-04T20:32:05.670Z,5.10
2022-08-04T20:34:36.951Z,4.50
2022-08-04T20:37:04.168Z,4.33
2022-08-04T20:39:31.511Z,4.27
2022-08-04T20:41:58.710Z,4.83
2022-08-04T20:44:25.757Z,4.30
2022-08-04T20:46:53.277Z,4.67
2022-08-04T20:49:20.120Z,4.80
2022-08-04T20:51:50.310Z,4.50
2022-08-04T20:54:26.475Z,4.60
2022-08-04T20:56:54.121Z,4.53
2022-08-04T20:59:23.584Z,5.03
2022-08-04T21:01:53.650Z,4.47
2022-08-04T21:04:33.008Z,4.93
2022-08-04T21:07:01.508Z,5.00
2022-08-04T21:12:28.056Z,5.00
2022-08-04T21:15:02.251Z,5.17
2022-08-04T21:17:58.421Z,5.37
2022-08-04T21:20:28.841Z,5.37
2022-08-04T21:23:05.188Z,5.00
2022-08-04T21:25:39.102Z,5.30
2022-08-04T21:28:11.142Z,5.10
2022-08-04T21:30:54.126Z,5.03
2022-08-04T21:33:24.382Z,5.40
2022-08-04T21:36:11.337Z,5.20
2022-08-04T21:38:39.356Z,5.13
2022-08-04T21:41:09.599Z,5.37
2022-08-04T21:43:43.099Z,5.50
2022-08-04T21:46:13.128Z,5.40
2022-08-04T21:48:42.411Z,5.30
2022-08-04T21:51:57.433Z,5.70
2022-08-04T21:54:09.220Z,5.43
2022-08-04T21:56:38.010Z,5.27
2022-08-04T21:59:11.019Z,5.43
2022-08-04T22:01:52.484Z,6.07
2022-08-04T22:04:25.528Z,5.53
2022-08-04T22:06:52.926Z,4.90
2022-08-04T22:09:37.749Z,5.70
2022-08-04T22:12:14.900Z,5.57
2022-08-04T22:17:41.690Z,5.67
2022-08-04T22:20:31.087Z,5.47
2022-08-04T22:23:06.171Z,5.77
2022-08-04T22:25:45.048Z,6.07
2022-08-04T22:28:22.335Z,5.90
2022-08-04T22:31:24.334Z,6.30
2022-08-04T22:34:16.194Z,6.23
2022-08-04T22:36:46.300Z,6.50
2022-08-04T22:39:13.412Z,6.30
2022-08-04T22:42:02.809Z,6.60
2022-08-04T22:44:29.720Z,6.40
2022-08-04T22:47:08.878Z,6.73
2022-08-04T22:50:01.715Z,6.40
2022-08-04T22:52:36.178Z,6.40
2022-08-04T22:55:03.527Z,6.60
2022-08-04T22:57:43.394Z,6.00
2022-08-04T23:00:28.970Z,6.23
2022-08-04T23:02:56.041Z,6.10
2022-08-04T23:05:23.542Z,5.87
2022-08-04T23:07:56.181Z,6.57
2022-08-04T23:10:24.380Z,6.30
2022-08-04T23:12:51.465Z,6.67
2022-08-04T23:18:19.889Z,6.67
2022-08-04T23:20:46.880Z,6.40
2022-08-04T23:23:19.678Z,6.17
2022-08-04T23:26:07.263Z,6.77
2022-08-04T23:28:33.917Z,6.80
2022-08-04T23:31:00.804Z,6.43
2022-08-04T23:33:50.772Z,6.23
2022-08-04T23:36:16.847Z,6.57
2022-08-04T23:38:43.706Z,6.60
2022-08-04T23:53:06.412Z,6.43
2022-08-04T23:55:45.783Z,6.70
2022-08-04T23:58:18.991Z,6.77
